Time;durP1;ratioP1;P1;durP2;ratioP2;P2;SDS_P1;SDS_P2;PMS_P1;PMS_P2;Temp;Humidity;BMP_temperature;BMP_pressure;BME280_temperature;BME280_humidity;BME280_pressure;Samples;Min_cycle;Max_cycle;Signal;HPM_P1;HPM_P2
2022/06/30 00:01:24;;;;;;;7.67;7.07;;;19.60;99.80;;;;;;5097824;28;20202;-43
2022/06/30 00:03:50;;;;;;;7.73;7.13;;;19.60;99.90;;;;;;5097958;28;20182;-44
2022/06/30 00:06:16;;;;;;;9.00;8.30;;;19.60;99.90;;;;;;5097059;28;20335;-45
2022/06/30 00:08:41;;;;;;;9.03;7.63;;;19.50;99.90;;;;;;5096801;28;20208;-42
2022/06/30 00:11:07;;;;;;;8.20;7.60;;;19.50;99.90;;;;;;5096828;28;20165;-46
2022/06/30 00:13:34;;;;;;;8.97;8.27;;;19.50;99.90;;;;;;5097530;28;20181;-43
2022/06/30 00:16:00;;;;;;;9.00;8.10;;;19.50;99.90;;;;;;5097331;28;20173;-44
2022/06/30 00:18:26;;;;;;;9.27;8.47;;;19.50;99.90;;;;;;5097393;28;20462;-43
2022/06/30 00:20:52;;;;;;;9.30;8.30;;;19.50;99.90;;;;;;5097178;28;20840;-42
2022/06/30 00:23:17;;;;;;;8.33;7.73;;;19.50;99.90;;;;;;5097738;28;20166;-42
2022/06/30 00:25:43;;;;;;;8.70;7.90;;;19.40;99.90;;;;;;5097870;28;20185;-44
2022/06/30 00:28:09;;;;;;;11.50;8.00;;;19.40;99.90;;;;;;5101620;28;20202;-44
2022/06/30 00:30:34;;;;;;;8.33;7.73;;;19.40;99.90;;;;;;5101060;28;20198;-43
2022/06/30 00:33:00;;;;;;;8.93;8.23;;;19.40;99.90;;;;;;5100792;28;20627;-45
2022/06/30 00:35:25;;;;;;;8.83;8.00;;;19.40;99.90;;;;;;5098147;28;20196;-44
2022/06/30 00:37:51;;;;;;;8.70;8.00;;;19.40;99.90;;;;;;5098330;28;20220;-45
2022/06/30 00:40:17;;;;;;;8.30;7.60;;;19.30;99.90;;;;;;5098925;28;20198;-43
2022/06/30 00:42:43;;;;;;;9.10;8.30;;;19.30;99.90;;;;;;5098512;28;20578;-41
2022/06/30 00:45:09;;;;;;;8.77;7.87;;;19.30;99.90;;;;;;5099244;28;20417;-45
2022/06/30 00:47:34;;;;;;;8.97;8.07;;;19.30;99.90;;;;;;5100013;28;20208;-44
2022/06/30 00:50:01;;;;;;;9.30;8.50;;;19.30;99.90;;;;;;5100816;28;20415;-43
2022/06/30 00:52:29;;;;;;;8.83;8.13;;;19.20;99.90;;;;;;5099993;28;20245;-45
2022/06/30 00:54:55;;;;;;;9.07;8.27;;;19.20;99.90;;;;;;5101338;28;20411;-46
2022/06/30 00:57:21;;;;;;;8.57;7.87;;;19.20;99.90;;;;;;5100894;28;20415;-44
2022/06/30 00:59:48;;;;;;;9.97;8.97;;;19.20;99.90;;;;;;5100091;28;20416;-43
2022/06/30 01:02:14;;;;;;;9.80;8.90;;;19.20;99.90;;;;;;5099815;28;20492;-46
2022/06/30 01:04:41;;;;;;;10.40;9.47;;;19.20;99.90;;;;;;5100589;28;20412;-43
2022/06/30 01:07:07;;;;;;;9.97;9.07;;;19.10;99.90;;;;;;5100022;28;20426;-43
2022/06/30 01:15:01;;;;;;;10.80;8.27;;;19.10;99.90;;;;;;5100275;28;20402;-44
2022/06/30 01:17:27;;;;;;;9.60;8.70;;;19.10;99.90;;;;;;5100857;28;20852;-43
2022/06/30 01:19:53;;;;;;;9.67;8.87;;;19.00;99.90;;;;;;5100402;28;20417;-43
2022/06/30 01:22:19;;;;;;;10.80;9.03;;;19.00;99.90;;;;;;5100490;28;20563;-42
2022/06/30 01:24:45;;;;;;;9.90;8.97;;;19.00;99.90;;;;;;5100534;28;20487;-44
2022/06/30 01:27:11;;;;;;;10.40;9.30;;;19.00;99.90;;;;;;5100249;28;20440;-42
2022/06/30 01:29:37;;;;;;;9.30;8.50;;;18.90;99.90;;;;;;5100695;28;20175;-42
2022/06/30 01:32:03;;;;;;;10.13;9.20;;;19.00;99.90;;;;;;5100759;28;20484;-46
2022/06/30 01:34:29;;;;;;;10.00;9.00;;;18.90;99.90;;;;;;5100239;28;20502;-42
2022/06/30 01:40:17;;;;;;;9.17;8.47;;;18.90;99.90;;;;;;5099770;28;20264;-45
2022/06/30 01:42:43;;;;;;;9.77;8.97;;;18.90;99.90;;;;;;5100074;28;20434;-45
2022/06/30 01:45:09;;;;;;;9.53;8.60;;;18.90;99.90;;;;;;5100534;28;20421;-46
2022/06/30 01:47:35;;;;;;;9.30;8.50;;;18.90;99.90;;;;;;5099925;28;20382;-45
2022/06/30 01:50:06;;;;;;;10.10;9.20;;;18.90;99.90;;;;;;5099817;28;20412;-41
2022/06/30 01:52:31;;;;;;;8.77;7.97;;;18.90;99.90;;;;;;5099173;28;20416;-43
2022/06/30 01:54:57;;;;;;;8.97;8.10;;;18.80;99.90;;;;;;5099789;28;20651;-44
2022/06/30 01:57:22;;;;;;;8.63;7.93;;;18.80;99.90;;;;;;5099354;28;20196;-43
2022/06/30 01:59:48;;;;;;;10.63;8.43;;;18.80;99.90;;;;;;5098854;28;20186;-43
2022/06/30 02:02:14;;;;;;;8.90;8.17;;;18.70;99.90;;;;;;5099672;28;20463;-42
2022/06/30 02:04:48;;;;;;;8.83;8.00;;;18.70;99.90;;;;;;5099764;28;20559;-44
2022/06/30 02:07:14;;;;;;;8.40;7.80;;;18.70;99.90;;;;;;5099577;28;20217;-45
2022/06/30 02:09:41;;;;;;;8.63;7.97;;;18.70;99.90;;;;;;5099668;28;20433;-44
2022/06/30 02:14:52;;;;;;;9.13;8.37;;;18.70;99.90;;;;;;5099389;28;20469;-43
2022/06/30 02:17:17;;;;;;;8.93;8.03;;;18.70;99.90;;;;;;5099294;28;20517;-43
2022/06/30 02:19:43;;;;;;;8.87;8.10;;;18.70;99.90;;;;;;5099001;28;20563;-42
2022/06/30 02:22:09;;;;;;;9.13;8.30;;;18.60;99.90;;;;;;5098562;28;20180;-48
2022/06/30 02:24:34;;;;;;;9.30;8.50;;;18.60;99.90;;;;;;5099140;28;20183;-47
2022/06/30 02:27:01;;;;;;;8.50;7.80;;;18.60;99.90;;;;;;5099576;28;20176;-43
2022/06/30 02:29:26;;;;;;;7.80;7.20;;;18.60;99.90;;;;;;5098980;28;20290;-44
2022/06/30 02:31:52;;;;;;;7.90;7.20;;;18.60;99.90;;;;;;5098999;28;20565;-43
2022/06/30 02:34:17;;;;;;;11.37;8.13;;;18.60;99.90;;;;;;5099063;28;20212;-44
2022/06/30 02:36:46;;;;;;;9.23;8.40;;;18.60;99.90;;;;;;5099024;28;20174;-46
2022/06/30 02:39:12;;;;;;;8.80;8.10;;;18.60;99.90;;;;;;5099124;28;20529;-42
2022/06/30 02:41:38;;;;;;;9.43;8.63;;;18.50;99.90;;;;;;5098593;28;20438;-45
2022/06/30 02:44:04;;;;;;;8.93;8.23;;;18.50;99.90;;;;;;5098471;28;20180;-45
2022/06/30 02:46:30;;;;;;;9.23;8.40;;;18.50;99.90;;;;;;5098118;28;20539;-41
2022/06/30 02:48:55;;;;;;;9.10;8.40;;;18.40;99.90;;;;;;5097752;28;20205;-43
2022/06/30 02:51:21;;;;;;;9.37;8.47;;;18.50;99.90;;;;;;5098918;28;20439;-44
2022/06/30 02:53:47;;;;;;;9.07;8.37;;;18.40;99.90;;;;;;5098360;28;20555;-42
2022/06/30 02:56:13;;;;;;;8.60;7.83;;;18.40;99.90;;;;;;5098300;28;20437;-42
2022/06/30 02:58:39;;;;;;;8.40;7.70;;;18.40;99.90;;;;;;5098565;28;20438;-43
2022/06/30 03:01:06;;;;;;;9.73;8.93;;;18.40;99.90;;;;;;5097467;28;20476;-44
2022/06/30 03:03:32;;;;;;;8.57;7.87;;;18.40;99.90;;;;;;5096848;28;20762;-43
2022/06/30 03:05:57;;;;;;;8.83;8.03;;;18.40;99.90;;;;;;5097065;28;20436;-43
2022/06/30 03:08:23;;;;;;;9.90;9.10;;;18.30;99.90;;;;;;5096949;28;20192;-43
2022/06/30 03:10:49;;;;;;;7.87;7.07;;;18.20;99.90;;;;;;5096178;28;20176;-44
2022/06/30 03:13:15;;;;;;;9.20;8.40;;;18.00;99.90;;;;;;5096497;28;20224;-45
2022/06/30 03:15:41;;;;;;;9.50;8.70;;;17.90;99.90;;;;;;5097064;28;20444;-43
2022/06/30 03:18:07;;;;;;;9.50;8.57;;;17.70;99.90;;;;;;5097272;28;20208;-45
2022/06/30 03:20:33;;;;;;;9.27;8.50;;;17.60;99.90;;;;;;5095384;28;20471;-43
2022/06/30 03:22:59;;;;;;;9.07;8.40;;;17.50;99.90;;;;;;5096757;28;20833;-43
2022/06/30 03:25:24;;;;;;;8.80;8.10;;;17.40;99.90;;;;;;5096921;28;20173;-44
2022/06/30 03:27:50;;;;;;;9.30;8.60;;;17.30;99.90;;;;;;5097076;28;20486;-42
2022/06/30 03:30:15;;;;;;;9.97;9.27;;;17.20;99.90;;;;;;5096996;28;20170;-44
2022/06/30 03:32:41;;;;;;;8.83;8.20;;;17.10;99.90;;;;;;5096512;28;20255;-43
2022/06/30 03:35:08;;;;;;;9.77;8.97;;;17.00;99.90;;;;;;5097907;28;20487;-44
2022/06/30 03:37:34;;;;;;;10.63;9.63;;;17.00;99.90;;;;;;5097893;28;20184;-47
2022/06/30 03:40:00;;;;;;;10.03;9.23;;;17.00;99.90;;;;;;5097642;28;20727;-47
2022/06/30 03:42:25;;;;;;;9.30;8.60;;;16.90;99.90;;;;;;5097922;28;20254;-44
2022/06/30 03:44:51;;;;;;;10.20;9.20;;;16.90;99.90;;;;;;5097656;28;20426;-45
2022/06/30 03:47:17;;;;;;;9.70;8.77;;;16.90;99.90;;;;;;5097729;28;20208;-44
2022/06/30 03:49:42;;;;;;;11.00;10.00;;;16.90;99.90;;;;;;5096619;28;20197;-44
2022/06/30 03:52:08;;;;;;;9.70;9.00;;;16.80;99.90;;;;;;5095875;28;20166;-44
2022/06/30 03:54:34;;;;;;;9.30;8.50;;;16.80;99.90;;;;;;5094057;28;20559;-42
2022/06/30 03:56:59;;;;;;;9.40;8.70;;;16.80;99.90;;;;;;5093775;28;20245;-44
2022/06/30 03:59:25;;;;;;;10.10;9.20;;;16.80;99.90;;;;;;5092868;28;20239;-45
2022/06/30 04:01:51;;;;;;;10.17;9.37;;;16.80;99.90;;;;;;5091992;28;20517;-44
2022/06/30 04:04:16;;;;;;;8.80;8.10;;;16.90;99.90;;;;;;5091738;28;20201;-47
2022/06/30 04:06:42;;;;;;;10.83;9.93;;;16.80;99.90;;;;;;5093154;28;20463;-42
2022/06/30 04:09:08;;;;;;;9.73;8.97;;;16.80;99.90;;;;;;5094843;28;20547;-44
2022/06/30 04:11:34;;;;;;;9.27;8.57;;;16.90;99.90;;;;;;5094966;28;20456;-44
2022/06/30 04:13:59;;;;;;;10.63;9.73;;;16.90;99.90;;;;;;5095265;28;20478;-44
2022/06/30 04:16:25;;;;;;;9.43;8.63;;;16.90;99.90;;;;;;5095691;28;20177;-44
2022/06/30 04:18:51;;;;;;;10.40;9.57;;;16.90;99.90;;;;;;5096948;28;20317;-47
2022/06/30 04:21:16;;;;;;;10.97;9.97;;;17.00;99.90;;;;;;5095129;28;20567;-42
2022/06/30 04:23:43;;;;;;;10.40;9.50;;;17.00;99.90;;;;;;5094739;28;20439;-44
2022/06/30 04:26:09;;;;;;;9.63;8.83;;;17.00;99.90;;;;;;5094402;28;20173;-44
2022/06/30 04:28:34;;;;;;;10.83;9.83;;;17.10;99.90;;;;;;5093838;28;20470;-44
2022/06/30 04:33:44;;;;;;;10.43;9.43;;;17.10;99.90;;;;;;5094343;28;20567;-44
2022/06/30 04:36:10;;;;;;;11.10;9.60;;;17.20;99.90;;;;;;5093763;28;20423;-45
2022/06/30 04:38:35;;;;;;;9.30;8.50;;;17.20;99.90;;;;;;5094200;28;20180;-45
2022/06/30 04:43:45;;;;;;;10.33;9.33;;;17.40;99.90;;;;;;5094163;28;20191;-46
2022/06/30 04:46:11;;;;;;;11.33;10.40;;;17.50;99.90;;;;;;5093447;28;20423;-43
2022/06/30 04:48:37;;;;;;;9.90;9.10;;;17.50;99.90;;;;;;5094944;28;20277;-44
2022/06/30 04:51:02;;;;;;;10.73;9.93;;;17.60;99.90;;;;;;5093691;28;20178;-44
2022/06/30 04:53:28;;;;;;;10.67;9.77;;;17.70;99.90;;;;;;5093046;28;20225;-43
2022/06/30 04:55:54;;;;;;;11.60;10.00;;;17.70;99.90;;;;;;5093743;28;20173;-44
2022/06/30 04:58:19;;;;;;;11.53;10.53;;;17.80;99.90;;;;;;5093851;28;20184;-46
2022/06/30 05:00:46;;;;;;;11.17;10.27;;;17.90;99.90;;;;;;5092029;28;20184;-48
2022/06/30 05:03:11;;;;;;;11.90;10.70;;;18.00;99.90;;;;;;5089346;28;20177;-46
2022/06/30 05:05:37;;;;;;;12.30;11.00;;;18.10;99.90;;;;;;5091647;28;20419;-44
2022/06/30 05:08:03;;;;;;;11.47;10.47;;;18.20;99.90;;;;;;5093437;28;20564;-44
2022/06/30 05:10:30;;;;;;;9.17;8.40;;;18.30;99.90;;;;;;5092495;28;20643;-44
2022/06/30 05:12:56;;;;;;;11.10;10.10;;;18.40;99.90;;;;;;5095912;28;20571;-44
2022/06/30 05:15:21;;;;;;;10.40;9.50;;;18.50;99.90;;;;;;5095847;28;20415;-44
2022/06/30 05:17:47;;;;;;;10.60;9.80;;;18.60;99.90;;;;;;5095083;28;20178;-43
2022/06/30 05:20:13;;;;;;;9.87;9.07;;;18.60;99.90;;;;;;5095036;28;20188;-44
2022/06/30 05:22:38;;;;;;;9.83;9.03;;;18.70;99.90;;;;;;5096279;28;20174;-44
2022/06/30 05:27:48;;;;;;;10.33;9.40;;;19.00;99.90;;;;;;5096556;28;20215;-46
2022/06/30 05:30:15;;;;;;;10.87;9.87;;;19.10;99.90;;;;;;5096658;28;20413;-44
2022/06/30 05:32:41;;;;;;;12.20;9.20;;;19.20;99.90;;;;;;5096215;28;20291;-46
2022/06/30 05:35:07;;;;;;;10.27;9.37;;;19.30;99.90;;;;;;5095431;28;20464;-47
2022/06/30 05:37:33;;;;;;;10.20;9.40;;;19.40;99.90;;;;;;5096728;28;20709;-42
2022/06/30 05:39:59;;;;;;;9.83;9.00;;;19.60;99.90;;;;;;5094090;28;20419;-47
2022/06/30 05:42:24;;;;;;;10.17;9.30;;;19.80;99.90;;;;;;5091852;28;20428;-46
2022/06/30 05:44:50;;;;;;;9.77;8.97;;;19.90;99.90;;;;;;5092033;28;20243;-43
2022/06/30 05:47:15;;;;;;;8.90;8.20;;;20.00;99.90;;;;;;5091461;28;20292;-43
2022/06/30 05:49:41;;;;;;;9.07;8.37;;;20.20;99.90;;;;;;5091149;28;20398;-45
2022/06/30 05:52:08;;;;;;;13.00;9.23;;;20.30;99.90;;;;;;5091869;28;20185;-44
2022/06/30 05:54:34;;;;;;;11.33;10.33;;;20.50;99.90;;;;;;5091552;28;20224;-43
2022/06/30 05:57:03;;;;;;;11.90;10.10;;;20.60;99.90;;;;;;5092563;28;20488;-44
2022/06/30 05:59:30;;;;;;;11.00;10.10;;;20.70;99.90;;;;;;5093097;28;20180;-45
2022/06/30 06:01:56;;;;;;;9.43;8.67;;;20.90;99.80;;;;;;5092964;28;20510;-43
2022/06/30 06:04:22;;;;;;;10.67;9.67;;;21.00;99.60;;;;;;5094808;28;20823;-45
2022/06/30 06:06:47;;;;;;;9.37;8.43;;;21.20;99.60;;;;;;5095629;28;20179;-44
2022/06/30 06:09:13;;;;;;;10.03;9.13;;;21.40;99.10;;;;;;5076590;28;20213;-45
2022/06/30 06:11:38;;;;;;;10.97;9.97;;;21.50;98.70;;;;;;5094696;28;20176;-45
2022/06/30 06:14:04;;;;;;;11.07;10.13;;;21.70;98.10;;;;;;5095384;28;20524;-46
2022/06/30 06:16:30;;;;;;;9.73;9.03;;;21.70;98.10;;;;;;5094714;28;20166;-44
2022/06/30 06:18:55;;;;;;;9.17;8.50;;;21.70;98.30;;;;;;5094294;28;20438;-45
2022/06/30 06:21:21;;;;;;;9.07;8.17;;;21.90;98.40;;;;;;5094408;28;20574;-46
2022/06/30 06:23:47;;;;;;;9.40;8.43;;;22.10;98.30;;;;;;5093485;28;20173;-45
2022/06/30 06:26:13;;;;;;;12.10;8.13;;;22.30;98.10;;;;;;5094584;28;20180;-45
2022/06/30 06:31:23;;;;;;;8.90;8.20;;;22.70;97.60;;;;;;5093785;28;20666;-44
2022/06/30 06:33:48;;;;;;;11.33;7.57;;;23.00;97.50;;;;;;5090789;28;20456;-46
2022/06/30 06:36:15;;;;;;;9.00;8.00;;;23.20;97.10;;;;;;5091217;28;20244;-43
2022/06/30 06:38:41;;;;;;;9.43;8.60;;;23.40;96.60;;;;;;5093126;28;20191;-45
2022/06/30 06:41:08;;;;;;;8.47;7.77;;;23.60;96.20;;;;;;5090857;28;20420;-43
2022/06/30 06:43:34;;;;;;;7.87;7.27;;;23.70;96.00;;;;;;5091707;28;20689;-43
2022/06/30 06:46:00;;;;;;;8.10;7.47;;;23.90;95.40;;;;;;5090455;28;20478;-47
2022/06/30 06:48:25;;;;;;;8.40;7.40;;;24.10;94.90;;;;;;5092008;28;20503;-45
2022/06/30 06:50:51;;;;;;;8.97;8.17;;;24.20;94.10;;;;;;5094306;28;20231;-43
2022/06/30 06:53:17;;;;;;;8.50;7.80;;;24.30;94.10;;;;;;5095501;28;20169;-44
2022/06/30 06:55:43;;;;;;;8.43;7.53;;;24.50;93.90;;;;;;5093549;28;20224;-45
2022/06/30 06:58:10;;;;;;;9.33;8.43;;;24.70;93.10;;;;;;5093737;28;20245;-45
2022/06/30 07:00:36;;;;;;;8.77;7.97;;;24.70;93.00;;;;;;5091994;28;20412;-44
2022/06/30 07:03:02;;;;;;;9.47;8.50;;;24.80;92.80;;;;;;5091126;28;20492;-44
2022/06/30 07:05:27;;;;;;;7.70;6.80;;;25.00;92.80;;;;;;5091745;28;20409;-46
2022/06/30 07:07:58;;;;;;;9.83;9.00;;;25.10;92.30;;;;;;5090305;28;20474;-44
2022/06/30 07:10:23;;;;;;;8.07;7.37;;;25.20;92.00;;;;;;5093920;28;20190;-45
2022/06/30 07:12:49;;;;;;;10.33;7.87;;;25.40;91.80;;;;;;5095664;28;20770;-43
2022/06/30 07:15:15;;;;;;;8.70;7.90;;;25.60;91.40;;;;;;5095355;28;20462;-45
2022/06/30 07:17:40;;;;;;;8.40;7.80;;;25.80;91.20;;;;;;5094060;28;20202;-44
2022/06/30 07:20:07;;;;;;;8.77;8.07;;;26.00;90.70;;;;;;5092753;28;20188;-45
2022/06/30 07:22:33;;;;;;;8.00;7.30;;;26.30;89.80;;;;;;5093461;28;20180;-45
2022/06/30 07:24:58;;;;;;;9.33;8.53;;;26.30;89.80;;;;;;5092973;28;20411;-46
2022/06/30 07:27:24;;;;;;;7.20;6.60;;;26.50;89.60;;;;;;5091686;28;20426;-45
2022/06/30 07:29:50;;;;;;;7.77;7.17;;;26.70;87.70;;;;;;5093306;28;20190;-45
2022/06/30 07:32:15;;;;;;;8.27;7.57;;;26.70;88.00;;;;;;5092402;28;20293;-45
2022/06/30 07:34:41;;;;;;;8.20;7.60;;;26.90;87.40;;;;;;5094673;28;20167;-47
2022/06/30 07:37:06;;;;;;;8.33;7.60;;;27.00;87.20;;;;;;5094482;28;20571;-48
2022/06/30 07:39:32;;;;;;;7.93;7.23;;;27.20;86.40;;;;;;5092536;28;20211;-48
2022/06/30 07:41:58;;;;;;;7.37;6.87;;;27.30;84.70;;;;;;5090518;28;20187;-47
2022/06/30 07:44:24;;;;;;;10.20;7.30;;;27.50;84.00;;;;;;5094224;28;20507;-45
2022/06/30 07:46:50;;;;;;;8.10;7.50;;;27.50;82.40;;;;;;5095422;28;20177;-47
2022/06/30 07:49:15;;;;;;;8.10;7.33;;;27.40;82.90;;;;;;5094606;28;20204;-45
2022/06/30 07:51:41;;;;;;;7.93;7.33;;;27.70;82.70;;;;;;5093331;28;20417;-45
2022/06/30 07:54:07;;;;;;;8.70;8.00;;;27.80;81.90;;;;;;5092299;28;20172;-46
2022/06/30 07:56:32;;;;;;;8.20;7.50;;;27.80;80.60;;;;;;5092266;28;20213;-45
2022/06/30 07:58:58;;;;;;;7.70;6.97;;;27.80;81.10;;;;;;5093508;28;20594;-46
2022/06/30 08:01:24;;;;;;;8.07;7.53;;;27.90;81.20;;;;;;5092420;28;20584;-47
2022/06/30 08:03:50;;;;;;;7.80;7.20;;;28.10;81.20;;;;;;5094580;28;20429;-46
2022/06/30 08:06:16;;;;;;;7.60;7.00;;;28.20;79.60;;;;;;5094712;28;20688;-45
2022/06/30 08:08:42;;;;;;;7.70;7.10;;;28.30;79.20;;;;;;5094188;28;20289;-45
2022/06/30 08:11:11;;;;;;;8.97;8.23;;;28.40;79.30;;;;;;5078640;28;20769;-48
2022/06/30 08:13:37;;;;;;;7.20;6.40;;;28.50;77.70;;;;;;5076522;28;20458;-46
2022/06/30 08:16:03;;;;;;;7.73;7.13;;;28.70;77.10;;;;;;5094217;28;20399;-45
2022/06/30 08:18:29;;;;;;;8.00;7.40;;;28.90;77.40;;;;;;5095457;28;20424;-51
2022/06/30 08:20:56;;;;;;;7.27;6.50;;;29.00;77.00;;;;;;5094171;28;20406;-45
2022/06/30 08:23:22;;;;;;;8.20;7.50;;;29.00;75.50;;;;;;5091957;28;20415;-47
2022/06/30 08:25:51;;;;;;;7.20;6.50;;;29.20;75.40;;;;;;5091905;28;20825;-46
2022/06/30 08:28:17;;;;;;;6.83;6.30;;;29.40;74.00;;;;;;5092240;28;20204;-45
2022/06/30 08:30:44;;;;;;;6.50;5.90;;;29.50;73.10;;;;;;5091163;28;20394;-46
2022/06/30 08:33:10;;;;;;;6.27;5.77;;;29.80;71.20;;;;;;5092012;28;20251;-45
2022/06/30 08:35:36;;;;;;;6.87;6.37;;;30.20;69.50;;;;;;5092456;28;20409;-47
2022/06/30 08:38:01;;;;;;;8.40;6.70;;;30.50;68.90;;;;;;5091921;28;20250;-44
2022/06/30 08:43:12;;;;;;;6.90;6.00;;;31.00;64.60;;;;;;5095173;28;20597;-45
2022/06/30 08:45:42;;;;;;;7.03;6.43;;;31.20;65.90;;;;;;5094134;28;20687;-47
2022/06/30 08:48:08;;;;;;;6.20;5.80;;;31.40;60.70;;;;;;5095880;28;20560;-47
2022/06/30 08:50:33;;;;;;;6.30;5.47;;;31.30;61.50;;;;;;5097454;28;20912;-45
2022/06/30 08:53:02;;;;;;;6.87;6.37;;;31.40;59.50;;;;;;5079546;28;20471;-46
2022/06/30 08:55:30;;;;;;;6.50;5.97;;;31.40;60.40;;;;;;5097047;28;20186;-45
2022/06/30 08:58:03;;;;;;;7.07;6.37;;;31.60;59.90;;;;;;5097382;28;20483;-45
2022/06/30 09:00:29;;;;;;;6.30;5.47;;;31.80;59.40;;;;;;5097901;28;20517;-46
2022/06/30 09:02:54;;;;;;;7.33;6.83;;;32.10;58.70;;;;;;5098156;28;20422;-45
2022/06/30 09:05:20;;;;;;;5.73;4.70;;;32.30;57.20;;;;;;5098329;28;20403;-47
2022/06/30 09:07:46;;;;;;;5.57;5.07;;;32.40;52.20;;;;;;5099021;28;20237;-46
2022/06/30 09:10:12;;;;;;;6.60;6.10;;;32.10;54.20;;;;;;5098641;28;20187;-45
2022/06/30 09:12:38;;;;;;;5.83;5.33;;;32.10;54.30;;;;;;5094429;28;20366;-46
2022/06/30 09:15:04;;;;;;;6.97;6.30;;;32.20;54.40;;;;;;5095148;28;20189;-46
2022/06/30 09:17:30;;;;;;;6.70;6.03;;;32.40;54.10;;;;;;5096344;28;20822;-46
2022/06/30 09:20:04;;;;;;;5.67;5.17;;;32.40;53.80;;;;;;5096009;28;20760;-46
2022/06/30 09:22:35;;;;;;;6.13;5.63;;;32.60;54.80;;;;;;5093763;28;20435;-49
2022/06/30 09:25:04;;;;;;;5.40;5.00;;;32.90;53.90;;;;;;5095055;28;20794;-47
2022/06/30 09:27:35;;;;;;;4.93;4.53;;;33.30;51.10;;;;;;5095945;28;20400;-46
2022/06/30 09:30:09;;;;;;;5.40;4.90;;;33.70;48.00;;;;;;5096266;28;20899;-47
2022/06/30 09:32:47;;;;;;;5.50;5.10;;;33.90;48.10;;;;;;5095539;28;20465;-47
2022/06/30 09:35:13;;;;;;;5.57;5.13;;;34.00;49.30;;;;;;5096679;28;20436;-45
2022/06/30 09:37:39;;;;;;;6.77;5.93;;;34.10;50.40;;;;;;5095666;28;20499;-46
2022/06/30 09:40:07;;;;;;;6.27;5.67;;;34.30;48.20;;;;;;5094781;28;20531;-45
2022/06/30 09:42:38;;;;;;;6.27;4.83;;;34.00;48.90;;;;;;5093871;28;20428;-47
2022/06/30 09:45:05;;;;;;;6.07;5.57;;;34.10;49.00;;;;;;5093794;28;20843;-46
2022/06/30 09:47:31;;;;;;;6.00;5.40;;;34.40;48.70;;;;;;5091689;28;21083;-46
2022/06/30 09:50:05;;;;;;;5.07;4.63;;;34.70;47.70;;;;;;5092148;28;20419;-46
2022/06/30 09:52:31;;;;;;;4.47;3.70;;;35.00;46.60;;;;;;5090086;28;20184;-45
2022/06/30 09:55:01;;;;;;;4.40;4.00;;;34.90;42.60;;;;;;5093303;28;20439;-48
2022/06/30 09:57:29;;;;;;;6.10;4.80;;;34.70;42.60;;;;;;5094244;28;20415;-47
2022/06/30 10:00:08;;;;;;;6.33;5.30;;;34.60;44.00;;;;;;5091755;28;20397;-45
2022/06/30 10:02:41;;;;;;;5.17;4.70;;;34.10;44.40;;;;;;5093884;28;20522;-48
2022/06/30 10:05:09;;;;;;;9.60;6.00;;;34.10;45.00;;;;;;5094855;28;20388;-48
2022/06/30 10:07:35;;;;;;;6.53;6.03;;;33.50;44.90;;;;;;5095604;28;20432;-48
2022/06/30 10:10:12;;;;;;;5.93;5.20;;;32.70;47.00;;;;;;5093300;28;20449;-47
2022/06/30 10:12:40;;;;;;;5.57;5.03;;;31.40;48.10;;;;;;5092930;28;20425;-47
2022/06/30 10:15:07;;;;;;;7.40;5.80;;;31.70;49.40;;;;;;5095456;28;20531;-47
2022/06/30 10:17:35;;;;;;;7.00;6.30;;;32.40;50.10;;;;;;5094293;28;20426;-45
2022/06/30 10:20:03;;;;;;;5.37;4.97;;;33.10;49.30;;;;;;5094773;28;20378;-48
2022/06/30 10:22:29;;;;;;;9.73;5.70;;;33.80;48.80;;;;;;5092839;28;20451;-46
2022/06/30 10:24:56;;;;;;;6.20;5.70;;;34.50;47.70;;;;;;5092105;28;20385;-45
2022/06/30 10:27:29;;;;;;;5.67;5.23;;;34.60;45.30;;;;;;5091374;28;20396;-46
2022/06/30 10:29:55;;;;;;;7.97;6.10;;;34.70;46.20;;;;;;5093533;28;20431;-44
2022/06/30 10:32:40;;;;;;;6.10;5.60;;;34.80;45.20;;;;;;5093153;28;20757;-48
2022/06/30 10:35:32;;;;;;;6.40;5.90;;;34.90;45.10;;;;;;5092779;28;20381;-46
2022/06/30 10:38:13;;;;;;;7.30;5.87;;;35.10;44.60;;;;;;5091311;28;20812;-45
2022/06/30 10:41:05;;;;;;;5.33;5.00;;;34.80;44.50;;;;;;5091867;28;20415;-46
2022/06/30 10:43:31;;;;;;;5.90;5.50;;;34.80;44.00;;;;;;5092226;28;20482;-47
2022/06/30 10:46:05;;;;;;;6.43;5.83;;;35.00;45.60;;;;;;5093585;28;20647;-47
2022/06/30 10:48:56;;;;;;;6.77;6.20;;;35.20;45.10;;;;;;5073725;28;20208;-48
2022/06/30 10:51:23;;;;;;;6.87;5.60;;;35.50;43.80;;;;;;5078967;28;20503;-49
2022/06/30 10:53:52;;;;;;;5.93;5.40;;;35.50;43.40;;;;;;5090956;28;20453;-45
2022/06/30 10:56:19;;;;;;;6.10;5.57;;;35.50;43.70;;;;;;5093396;28;20786;-47
2022/06/30 10:59:14;;;;;;;8.23;5.93;;;35.80;45.60;;;;;;5091545;28;20400;-46
2022/06/30 11:02:06;;;;;;;6.40;6.00;;;35.90;44.90;;;;;;5073795;28;20457;-45
2022/06/30 11:04:31;;;;;;;6.20;5.80;;;35.50;43.90;;;;;;5090950;28;20437;-47
2022/06/30 11:07:01;;;;;;;6.10;5.60;;;35.60;44.10;;;;;;5090693;28;20432;-47
2022/06/30 11:09:49;;;;;;;6.47;5.97;;;35.70;43.60;;;;;;5090458;28;20593;-46
2022/06/30 11:12:18;;;;;;;6.70;6.10;;;36.10;43.40;;;;;;5090675;28;20389;-46
2022/06/30 11:14:53;;;;;;;7.33;6.63;;;36.00;42.80;;;;;;5092027;28;20418;-45
2022/06/30 11:17:23;;;;;;;6.30;5.87;;;35.90;43.70;;;;;;5089580;28;20531;-45
2022/06/30 11:20:03;;;;;;;6.10;5.60;;;35.60;43.20;;;;;;5090450;28;20447;-50
2022/06/30 11:22:29;;;;;;;5.50;5.10;;;35.40;43.50;;;;;;5091841;28;20430;-45
2022/06/30 11:25:05;;;;;;;7.33;6.63;;;35.40;44.80;;;;;;5091138;28;20495;-48
2022/06/30 11:27:36;;;;;;;6.53;6.00;;;35.80;43.80;;;;;;5090350;28;20438;-48
2022/06/30 11:30:07;;;;;;;5.93;5.53;;;35.50;42.50;;;;;;5093162;28;20436;-45
2022/06/30 11:32:33;;;;;;;8.20;7.33;;;35.60;43.00;;;;;;5091865;28;20482;-47
2022/06/30 11:34:58;;;;;;;7.07;6.47;;;35.40;43.10;;;;;;5090778;28;20697;-46
2022/06/30 11:37:26;;;;;;;6.83;6.13;;;35.30;43.90;;;;;;5093043;28;20529;-45
2022/06/30 11:39:59;;;;;;;7.10;6.20;;;34.90;43.90;;;;;;5090960;28;20741;-47
2022/06/30 11:42:25;;;;;;;7.20;6.30;;;35.40;43.80;;;;;;5089842;28;20430;-45
2022/06/30 11:44:51;;;;;;;6.93;6.33;;;35.90;42.00;;;;;;5086814;28;20891;-48
2022/06/30 11:47:17;;;;;;;7.67;6.93;;;36.10;41.80;;;;;;5071515;28;20415;-47
2022/06/30 11:49:46;;;;;;;7.53;6.50;;;36.10;41.30;;;;;;5071305;28;20208;-46
2022/06/30 11:52:16;;;;;;;6.43;6.00;;;36.00;41.70;;;;;;5070714;28;20452;-45
2022/06/30 11:55:03;;;;;;;6.97;6.23;;;36.00;42.00;;;;;;5070627;28;20440;-47
2022/06/30 11:57:34;;;;;;;6.83;6.23;;;36.10;41.80;;;;;;5071608;28;20432;-46
2022/06/30 12:00:11;;;;;;;7.30;6.70;;;36.30;41.50;;;;;;5071733;28;20463;-48
2022/06/30 12:02:38;;;;;;;7.30;6.50;;;36.30;42.10;;;;;;5070183;28;20424;-47
2022/06/30 12:05:06;;;;;;;6.63;6.13;;;36.20;41.70;;;;;;5070996;28;20422;-47
2022/06/30 12:07:35;;;;;;;6.97;6.33;;;36.40;42.30;;;;;;5070041;28;20447;-45
2022/06/30 12:10:03;;;;;;;6.20;5.80;;;36.90;42.00;;;;;;5069904;28;20497;-46
2022/06/30 12:12:30;;;;;;;6.30;5.90;;;36.90;40.80;;;;;;5068346;28;20527;-46
2022/06/30 12:14:59;;;;;;;6.80;6.20;;;36.80;41.10;;;;;;5071087;28;20387;-47
2022/06/30 12:17:30;;;;;;;7.00;6.30;;;36.80;41.40;;;;;;5072528;28;20415;-48
2022/06/30 12:19:56;;;;;;;7.60;5.93;;;37.30;43.60;;;;;;5073054;28;20518;-46
2022/06/30 12:22:22;;;;;;;7.67;7.03;;;38.10;43.00;;;;;;5076649;28;20518;-48
2022/06/30 12:24:48;;;;;;;6.07;5.57;;;38.90;41.40;;;;;;5079764;28;20273;-50
2022/06/30 12:27:46;;;;;;;6.00;5.50;;;39.50;39.30;;;;;;5077107;28;20437;-45
2022/06/30 12:30:17;;;;;;;7.33;6.73;;;39.50;37.10;;;;;;5076802;28;20468;-46
2022/06/30 12:32:57;;;;;;;6.53;6.00;;;38.00;37.60;;;;;;5077844;28;20495;-45
2022/06/30 12:35:24;;;;;;;6.80;6.20;;;38.10;38.80;;;;;;5059365;28;20427;-48
2022/06/30 12:37:51;;;;;;;7.27;6.67;;;38.00;38.40;;;;;;5077308;28;20424;-46
2022/06/30 12:40:20;;;;;;;8.03;7.00;;;37.80;39.00;;;;;;5077161;28;20495;-45
2022/06/30 12:42:54;;;;;;;7.27;6.63;;;37.40;39.80;;;;;;5076119;28;20476;-47
2022/06/30 12:45:43;;;;;;;7.20;6.60;;;37.40;39.40;;;;;;5075009;28;20761;-47
2022/06/30 12:48:10;;;;;;;6.97;6.07;;;37.20;39.20;;;;;;5072680;28;20466;-47
2022/06/30 12:50:38;;;;;;;7.40;6.80;;;37.30;39.30;;;;;;5073272;28;20620;-45
2022/06/30 12:53:24;;;;;;;6.90;6.40;;;37.30;39.00;;;;;;5077059;28;20432;-46
2022/06/30 12:56:01;;;;;;;7.10;6.60;;;36.90;38.80;;;;;;5078005;28;20813;-45
2022/06/30 12:58:30;;;;;;;7.27;6.40;;;37.30;40.10;;;;;;5074820;28;20397;-47
2022/06/30 13:00:58;;;;;;;6.80;6.17;;;37.80;39.30;;;;;;5074901;28;20420;-46
2022/06/30 13:03:25;;;;;;;7.60;7.00;;;37.20;39.10;;;;;;5077276;28;20422;-46
2022/06/30 13:05:50;;;;;;;6.80;6.30;;;36.30;40.90;;;;;;5075077;28;20408;-52
2022/06/30 13:08:16;;;;;;;7.00;6.40;;;36.60;40.50;;;;;;5075471;28;20589;-47
2022/06/30 13:13:26;;;;;;;7.33;6.83;;;37.30;40.20;;;;;;5075282;28;20486;-47
2022/06/30 13:15:51;;;;;;;7.37;6.77;;;37.60;39.10;;;;;;5076469;28;20412;-46